Time;durP1;ratioP1;P1;durP2;ratioP2;P2;SDS_P1;SDS_P2;PMS_P1;PMS_P2;Temp;Humidity;BMP_temperature;BMP_pressure;BME280_temperature;BME280_humidity;BME280_pressure;Samples;Min_cycle;Max_cycle;Signal;HPM_P1;HPM_P2
2023/05/30 00:02:09;;;;;;;5.60;2.50;;;19.60;81.60;;;;;;5079520;28;20049;-87
2023/05/30 00:04:35;;;;;;;5.78;2.50;;;19.60;81.70;;;;;;5078638;28;20020;-87
2023/05/30 00:07:01;;;;;;;6.38;2.58;;;19.60;82.00;;;;;;5080101;28;20088;-87
2023/05/30 00:09:27;;;;;;;8.95;2.90;;;19.50;81.90;;;;;;5078474;28;20477;-87
2023/05/30 00:11:54;;;;;;;7.82;2.72;;;19.50;82.10;;;;;;5078544;28;20029;-81
2023/05/30 00:14:20;;;;;;;6.40;2.65;;;19.50;82.50;;;;;;5077088;28;20017;-82
2023/05/30 00:16:47;;;;;;;6.55;2.50;;;19.40;83.00;;;;;;5077451;28;20024;-82
2023/05/30 00:19:13;;;;;;;8.68;2.47;;;19.40;83.60;;;;;;5078591;28;20462;-82
2023/05/30 00:21:39;;;;;;;5.80;2.30;;;19.30;83.80;;;;;;5077815;28;20035;-80
2023/05/30 00:24:05;;;;;;;7.28;2.50;;;19.30;84.10;;;;;;5077467;28;20036;-82
2023/05/30 00:26:31;;;;;;;8.18;3.05;;;19.20;84.20;;;;;;5077036;28;20033;-79
2023/05/30 00:28:57;;;;;;;5.60;2.53;;;19.20;84.40;;;;;;5078082;28;20032;-80
2023/05/30 00:31:23;;;;;;;7.47;2.72;;;19.20;84.70;;;;;;5079657;28;20477;-80
2023/05/30 00:33:49;;;;;;;8.40;2.40;;;19.10;85.10;;;;;;5080295;28;20016;-80
2023/05/30 00:36:14;;;;;;;5.82;2.60;;;19.00;85.70;;;;;;5079165;28;20028;-83
2023/05/30 00:38:41;;;;;;;6.57;2.63;;;19.00;85.40;;;;;;5080865;28;20538;-84
2023/05/30 00:41:07;;;;;;;7.88;2.60;;;19.00;84.90;;;;;;5079735;28;20037;-83
2023/05/30 00:43:33;;;;;;;5.97;2.42;;;18.90;85.00;;;;;;5079259;28;20040;-82
2023/05/30 00:45:59;;;;;;;7.18;2.42;;;19.00;84.90;;;;;;5079441;28;20024;-83
2023/05/30 00:48:25;;;;;;;10.32;2.40;;;19.00;84.50;;;;;;5078912;28;20030;-84
2023/05/30 00:50:53;;;;;;;6.88;2.45;;;18.90;84.50;;;;;;5079023;28;20033;-82
2023/05/30 00:53:20;;;;;;;10.00;2.88;;;18.90;84.70;;;;;;5078850;28;20052;-82
2023/05/30 00:55:46;;;;;;;9.57;2.90;;;18.90;84.70;;;;;;5077801;28;20485;-83
2023/05/30 00:58:12;;;;;;;8.23;2.75;;;18.80;84.70;;;;;;5078716;28;20461;-83
2023/05/30 01:00:39;;;;;;;8.65;2.33;;;18.80;84.80;;;;;;5077766;28;20043;-83
2023/05/30 01:03:05;;;;;;;5.85;2.78;;;18.70;84.80;;;;;;5078852;28;20466;-83
2023/05/30 01:05:31;;;;;;;5.57;2.13;;;18.70;85.00;;;;;;5077339;28;20114;-83
2023/05/30 01:07:57;;;;;;;7.30;2.50;;;18.60;85.90;;;;;;5077122;28;20032;-83
2023/05/30 01:10:23;;;;;;;4.85;2.47;;;18.50;85.50;;;;;;5077112;28;20029;-83
2023/05/30 01:13:11;;;;;;;7.00;2.40;;;18.60;85.40;;;;;;5078457;28;20032;-83
2023/05/30 01:15:43;;;;;;;5.05;2.28;;;18.60;85.40;;;;;;5078100;28;20025;-85
2023/05/30 01:18:46;;;;;;;5.93;2.10;;;18.60;85.20;;;;;;5078011;28;20051;-86
2023/05/30 01:21:15;;;;;;;9.80;2.25;;;18.60;84.90;;;;;;4981265;28;20057;-86
2023/05/30 01:24:08;;;;;;;8.02;2.70;;;18.50;85.10;;;;;;5063705;28;20036;-85
2023/05/30 01:26:58;;;;;;;7.43;2.33;;;18.40;85.10;;;;;;5076902;28;20032;-83
2023/05/30 01:29:25;;;;;;;9.77;2.22;;;18.40;85.40;;;;;;5077125;28;20115;-83
2023/05/30 01:31:51;;;;;;;5.85;2.08;;;18.40;85.20;;;;;;5077223;28;20533;-84
2023/05/30 01:34:18;;;;;;;4.82;2.80;;;18.40;85.40;;;;;;5076743;28;20115;-84
2023/05/30 01:36:43;;;;;;;6.63;2.03;;;18.40;85.70;;;;;;5078224;28;20070;-84
2023/05/30 01:39:12;;;;;;;7.88;2.50;;;18.40;85.70;;;;;;5076978;28;20024;-84
2023/05/30 01:42:08;;;;;;;8.40;2.45;;;18.30;85.70;;;;;;5076721;28;20075;-83
2023/05/30 01:44:40;;;;;;;6.70;2.50;;;18.30;85.80;;;;;;5068826;28;20032;-83
2023/05/30 01:47:21;;;;;;;10.32;2.67;;;18.20;85.90;;;;;;5075834;28;20028;-82
2023/05/30 01:50:08;;;;;;;4.43;2.00;;;18.10;86.30;;;;;;5076630;28;20020;-81
2023/05/30 01:52:39;;;;;;;7.70;2.30;;;18.10;86.30;;;;;;5075981;28;20098;-84
2023/05/30 01:55:07;;;;;;;5.43;2.10;;;18.10;86.50;;;;;;5076195;28;20032;-84
2023/05/30 01:57:39;;;;;;;5.63;2.20;;;18.00;87.60;;;;;;5075332;28;20029;-84
2023/05/30 02:00:06;;;;;;;5.95;2.17;;;18.00;87.20;;;;;;5076283;28;20031;-81
2023/05/30 02:02:32;;;;;;;7.28;2.35;;;18.00;87.20;;;;;;5075617;28;20610;-82
2023/05/30 02:04:57;;;;;;;7.93;2.28;;;17.90;87.40;;;;;;5074565;28;20378;-81
2023/05/30 02:07:23;;;;;;;5.95;2.20;;;17.90;87.10;;;;;;5073981;28;20133;-82
2023/05/30 02:09:48;;;;;;;6.47;2.30;;;17.90;87.20;;;;;;5074594;28;20035;-81
2023/05/30 02:12:14;;;;;;;6.40;2.45;;;17.90;87.10;;;;;;5073086;28;20051;-83
2023/05/30 02:14:40;;;;;;;5.47;2.33;;;17.80;87.50;;;;;;5073433;28;20024;-81
2023/05/30 02:17:06;;;;;;;5.53;2.10;;;17.90;88.10;;;;;;5073178;28;20053;-81
2023/05/30 02:19:31;;;;;;;3.65;1.80;;;17.90;87.30;;;;;;5072693;28;20099;-79
2023/05/30 02:21:57;;;;;;;4.55;2.03;;;17.90;87.40;;;;;;5074067;28;20549;-80
2023/05/30 02:24:22;;;;;;;5.85;2.10;;;17.80;87.40;;;;;;5072763;28;20033;-79
2023/05/30 02:26:48;;;;;;;5.88;2.15;;;17.80;87.60;;;;;;5074234;28;20035;-79
2023/05/30 02:29:14;;;;;;;7.03;2.00;;;17.70;87.90;;;;;;5073628;28;20032;-87
2023/05/30 02:31:39;;;;;;;7.13;2.63;;;17.70;87.80;;;;;;5073541;28;20024;-81
2023/05/30 02:34:05;;;;;;;6.07;2.38;;;17.60;88.20;;;;;;5073132;28;20059;-81
2023/05/30 02:36:32;;;;;;;6.78;2.50;;;17.60;88.20;;;;;;5073708;28;20031;-81
2023/05/30 02:39:04;;;;;;;6.72;1.95;;;17.60;88.20;;;;;;5073862;28;20480;-83
2023/05/30 02:41:30;;;;;;;5.43;2.20;;;17.50;88.20;;;;;;5073687;28;20032;-83
2023/05/30 02:43:55;;;;;;;6.53;2.15;;;17.50;88.30;;;;;;5074072;28;20036;-82
2023/05/30 02:46:21;;;;;;;5.75;2.30;;;17.50;87.90;;;;;;5073967;28;20028;-84
2023/05/30 02:48:47;;;;;;;7.10;2.22;;;17.50;87.80;;;;;;5075337;28;20031;-84
2023/05/30 02:51:12;;;;;;;5.97;2.30;;;17.40;88.00;;;;;;5080365;28;20033;-84
2023/05/30 02:53:39;;;;;;;6.47;2.30;;;17.40;88.00;;;;;;5083655;28;20033;-84
2023/05/30 02:56:05;;;;;;;4.20;2.05;;;17.40;88.10;;;;;;5082370;28;20028;-84
2023/05/30 02:58:30;;;;;;;7.75;2.50;;;17.30;88.40;;;;;;5074327;28;20097;-84
2023/05/30 03:00:56;;;;;;;8.32;2.10;;;17.30;88.20;;;;;;5077033;28;20112;-84
2023/05/30 03:03:24;;;;;;;9.55;2.38;;;17.30;88.00;;;;;;5077392;28;20045;-84
2023/05/30 03:05:50;;;;;;;4.68;2.00;;;17.30;88.10;;;;;;5077662;28;20035;-84
2023/05/30 03:08:16;;;;;;;7.88;2.00;;;17.30;88.10;;;;;;5076107;28;20024;-88
2023/05/30 03:10:42;;;;;;;6.53;2.28;;;17.20;88.00;;;;;;5078012;28;20032;-85
2023/05/30 03:13:08;;;;;;;5.00;2.13;;;17.30;87.70;;;;;;5077300;28;20462;-85
2023/05/30 03:15:34;;;;;;;5.30;2.45;;;17.20;87.70;;;;;;5076773;28;20438;-84
2023/05/30 03:18:00;;;;;;;6.55;2.00;;;17.20;87.80;;;;;;5076873;28;20036;-84
2023/05/30 03:20:26;;;;;;;5.60;1.98;;;17.10;87.70;;;;;;5077435;28;20513;-84
2023/05/30 03:22:51;;;;;;;5.22;1.80;;;17.10;87.90;;;;;;5076622;28;20036;-83
2023/05/30 03:25:17;;;;;;;6.10;2.38;;;17.00;87.70;;;;;;5077340;28;20354;-87
2023/05/30 03:27:49;;;;;;;7.10;2.17;;;17.00;87.70;;;;;;5078089;28;20025;-83
2023/05/30 03:30:15;;;;;;;8.80;2.47;;;17.00;87.60;;;;;;5077021;28;20033;-83
2023/05/30 03:32:41;;;;;;;6.68;1.98;;;17.00;87.60;;;;;;5076425;28;20074;-84
2023/05/30 03:35:07;;;;;;;6.88;2.22;;;17.00;87.50;;;;;;5076090;28;20029;-84
2023/05/30 03:37:33;;;;;;;7.78;2.10;;;17.00;87.50;;;;;;5076864;28;20381;-83
2023/05/30 03:39:58;;;;;;;5.85;1.90;;;16.90;87.80;;;;;;5093771;28;20029;-84
2023/05/30 03:42:24;;;;;;;7.35;1.90;;;16.90;87.80;;;;;;5076825;28;20170;-84
2023/05/30 03:44:49;;;;;;;5.57;1.98;;;16.80;87.60;;;;;;5077568;28;20032;-84
2023/05/30 03:47:15;;;;;;;7.43;2.28;;;16.80;87.70;;;;;;5076577;28;20486;-84
2023/05/30 03:49:40;;;;;;;6.70;2.00;;;16.80;87.60;;;;;;5076954;28;20028;-84
2023/05/30 03:52:06;;;;;;;7.18;2.00;;;16.70;88.00;;;;;;5076341;28;20109;-83
2023/05/30 03:54:32;;;;;;;4.80;1.77;;;16.70;87.90;;;;;;5075832;28;20028;-84
2023/05/30 03:56:58;;;;;;;6.25;2.03;;;16.70;87.70;;;;;;5075934;28;20032;-84
2023/05/30 03:59:23;;;;;;;8.07;2.15;;;16.70;87.80;;;;;;5076032;28;20031;-84
2023/05/30 04:01:49;;;;;;;6.25;2.00;;;16.70;87.90;;;;;;5076914;28;20053;-84
2023/05/30 04:04:14;;;;;;;4.78;1.98;;;16.60;88.10;;;;;;5075923;28;20032;-84
2023/05/30 04:06:40;;;;;;;6.50;1.85;;;16.60;88.10;;;;;;5092397;28;20066;-84
2023/05/30 04:09:06;;;;;;;5.47;1.80;;;16.60;88.30;;;;;;5075081;28;20429;-83
2023/05/30 04:11:32;;;;;;;6.03;1.90;;;16.50;87.90;;;;;;5076015;28;20086;-81
2023/05/30 04:13:57;;;;;;;5.30;2.00;;;16.50;87.80;;;;;;5092836;28;20112;-83
2023/05/30 04:16:23;;;;;;;6.20;1.98;;;16.50;87.80;;;;;;5075400;28;20024;-83
2023/05/30 04:18:49;;;;;;;5.25;1.73;;;16.50;87.40;;;;;;5092716;28;20028;-81
2023/05/30 04:21:14;;;;;;;4.95;2.22;;;16.40;87.00;;;;;;5092443;28;20489;-82
2023/05/30 04:23:40;;;;;;;6.40;2.00;;;16.40;86.90;;;;;;5075132;28;20117;-82
2023/05/30 04:26:08;;;;;;;4.55;1.75;;;16.40;86.40;;;;;;5075743;28;20390;-83
2023/05/30 04:28:36;;;;;;;7.20;2.08;;;16.40;86.60;;;;;;5075169;28;20453;-83
2023/05/30 04:31:05;;;;;;;7.10;1.90;;;16.40;85.70;;;;;;5075590;28;20039;-83
2023/05/30 04:33:34;;;;;;;4.97;1.88;;;16.30;85.30;;;;;;5076652;28;20021;-83
2023/05/30 04:36:02;;;;;;;7.80;1.95;;;16.30;85.50;;;;;;5076772;28;20025;-83
2023/05/30 04:38:28;;;;;;;6.70;1.52;;;16.30;86.00;;;;;;5076363;28;20032;-83
2023/05/30 04:40:54;;;;;;;6.00;1.73;;;16.20;85.50;;;;;;5075444;28;20393;-82
2023/05/30 04:43:19;;;;;;;3.72;2.03;;;16.20;85.00;;;;;;5075650;28;20029;-82
2023/05/30 04:45:49;;;;;;;4.10;1.67;;;16.30;85.00;;;;;;5074504;28;20024;-82
2023/05/30 04:48:15;;;;;;;6.25;1.80;;;16.20;84.70;;;;;;5075054;28;20028;-81
2023/05/30 04:50:46;;;;;;;5.70;2.17;;;16.30;84.20;;;;;;5074381;28;20024;-82
2023/05/30 04:53:19;;;;;;;7.28;1.70;;;16.20;84.00;;;;;;5076297;28;20032;-82
2023/05/30 04:55:44;;;;;;;9.23;1.73;;;16.20;84.10;;;;;;5074533;28;20056;-82
2023/05/30 04:58:11;;;;;;;5.35;1.73;;;16.10;84.10;;;;;;5074868;28;20029;-83
2023/05/30 05:00:38;;;;;;;6.55;1.80;;;16.20;83.90;;;;;;5075186;28;20020;-84
2023/05/30 05:03:04;;;;;;;6.28;1.77;;;16.10;84.10;;;;;;5075630;28;20067;-84
2023/05/30 05:05:30;;;;;;;12.07;2.00;;;16.20;83.90;;;;;;5073702;28;20454;-84
2023/05/30 05:07:56;;;;;;;5.72;1.60;;;16.20;83.70;;;;;;5074643;28;20032;-84
2023/05/30 05:10:21;;;;;;;5.13;1.50;;;16.20;83.90;;;;;;5075510;28;20021;-84
2023/05/30 05:12:47;;;;;;;4.88;1.40;;;16.20;83.50;;;;;;5075294;28;20033;-84
2023/05/30 05:15:13;;;;;;;5.28;1.73;;;16.30;83.40;;;;;;5075769;28;20099;-83
2023/05/30 05:17:39;;;;;;;7.63;1.88;;;16.30;83.20;;;;;;5075672;28;20024;-84
2023/05/30 05:20:09;;;;;;;3.58;1.50;;;16.30;83.20;;;;;;5075576;28;20035;-84
2023/05/30 05:22:35;;;;;;;6.90;1.87;;;16.30;83.20;;;;;;5074033;28;20033;-83
2023/05/30 05:25:01;;;;;;;5.82;1.80;;;16.20;83.20;;;;;;5075496;28;20085;-84
2023/05/30 05:27:27;;;;;;;6.03;1.60;;;16.20;83.20;;;;;;5074001;28;20044;-84
2023/05/30 05:29:53;;;;;;;9.07;1.60;;;16.20;83.40;;;;;;5075247;28;20480;-83
2023/05/30 05:32:19;;;;;;;9.98;2.20;;;16.20;83.20;;;;;;5073954;28;20024;-84
2023/05/30 05:34:44;;;;;;;5.22;1.60;;;16.20;83.20;;;;;;5073516;28;20029;-85
2023/05/30 05:37:10;;;;;;;8.73;1.48;;;16.30;83.40;;;;;;5075218;28;20024;-85
2023/05/30 05:39:35;;;;;;;7.03;2.28;;;16.20;83.80;;;;;;5074760;28;20104;-85
2023/05/30 05:42:02;;;;;;;6.53;1.58;;;16.20;83.70;;;;;;5074123;28;20061;-85
2023/05/30 05:44:29;;;;;;;9.05;1.73;;;16.30;83.70;;;;;;5073082;28;20025;-83
2023/05/30 05:46:55;;;;;;;7.90;2.20;;;16.30;83.10;;;;;;5074153;28;20035;-81
2023/05/30 05:49:21;;;;;;;6.15;1.75;;;16.30;83.20;;;;;;5073584;28;20024;-81
2023/05/30 05:51:46;;;;;;;5.07;1.73;;;16.40;83.10;;;;;;5090574;28;20035;-83
2023/05/30 05:54:12;;;;;;;4.75;1.60;;;16.40;83.00;;;;;;5073782;28;20020;-83
2023/05/30 05:56:37;;;;;;;4.15;1.48;;;16.40;83.10;;;;;;5090458;28;20354;-83
2023/05/30 05:59:03;;;;;;;7.30;1.45;;;16.40;83.00;;;;;;5074839;28;20024;-83
2023/05/30 06:01:29;;;;;;;6.38;1.90;;;16.40;82.60;;;;;;5073174;28;20029;-84
2023/05/30 06:03:54;;;;;;;8.57;1.73;;;16.50;82.40;;;;;;5073450;28;20052;-83
2023/05/30 06:06:20;;;;;;;10.43;2.00;;;16.50;82.90;;;;;;5074121;28;20025;-84
2023/05/30 06:08:46;;;;;;;8.50;2.05;;;16.50;82.50;;;;;;5073116;28;20318;-83
2023/05/30 06:11:13;;;;;;;10.35;1.85;;;16.50;82.30;;;;;;5075097;28;20032;-82
2023/05/30 06:13:38;;;;;;;9.00;2.00;;;16.60;82.80;;;;;;5072984;28;20059;-82
2023/05/30 06:16:05;;;;;;;6.53;1.70;;;16.60;82.90;;;;;;5073746;28;20024;-82
2023/05/30 06:18:30;;;;;;;6.55;1.75;;;16.60;82.70;;;;;;5073133;28;20028;-83
2023/05/30 06:20:56;;;;;;;7.65;1.67;;;16.70;82.70;;;;;;5089962;28;20033;-82
2023/05/30 06:23:21;;;;;;;8.10;2.03;;;16.70;82.90;;;;;;5074565;28;20036;-82
2023/05/30 06:25:47;;;;;;;8.32;1.98;;;16.70;83.20;;;;;;5072955;28;20080;-82
2023/05/30 06:28:13;;;;;;;6.13;1.70;;;16.70;82.80;;;;;;5074318;28;20497;-82
2023/05/30 06:30:38;;;;;;;5.45;1.83;;;16.70;83.40;;;;;;5073622;28;20051;-82
2023/05/30 06:33:04;;;;;;;3.97;1.52;;;16.80;83.30;;;;;;5072781;28;20480;-82
2023/05/30 06:35:29;;;;;;;7.55;1.50;;;16.90;83.10;;;;;;5072553;28;20028;-83
2023/05/30 06:37:55;;;;;;;5.65;2.42;;;17.00;83.20;;;;;;5073304;28;20149;-82
2023/05/30 06:40:21;;;;;;;7.90;2.00;;;17.00;82.60;;;;;;5074099;28;20025;-82
2023/05/30 06:42:46;;;;;;;7.55;2.35;;;17.10;82.90;;;;;;5072414;28;20103;-82
2023/05/30 06:45:12;;;;;;;6.57;1.90;;;17.10;83.00;;;;;;5072946;28;20127;-81
2023/05/30 06:47:38;;;;;;;8.35;1.73;;;17.10;82.80;;;;;;5072951;28;20024;-82
2023/05/30 06:50:06;;;;;;;3.72;1.33;;;17.10;82.90;;;;;;5074107;28;20040;-81
2023/05/30 06:52:31;;;;;;;7.95;2.00;;;17.20;83.00;;;;;;5072731;28;20037;-82
2023/05/30 06:54:57;;;;;;;8.43;2.05;;;17.20;83.00;;;;;;5073829;28;20050;-82
2023/05/30 06:57:24;;;;;;;8.07;1.98;;;17.30;82.70;;;;;;5074452;28;20024;-84
2023/05/30 06:59:49;;;;;;;8.00;2.28;;;17.30;82.80;;;;;;5072730;28;20279;-84
2023/05/30 07:02:15;;;;;;;7.18;2.08;;;17.40;82.60;;;;;;5072890;28;20053;-80
2023/05/30 07:04:41;;;;;;;6.95;1.98;;;17.40;82.20;;;;;;5073803;28;20029;-82
2023/05/30 07:07:07;;;;;;;7.40;1.73;;;17.40;81.90;;;;;;5072955;28;20039;-82
2023/05/30 07:09:33;;;;;;;8.65;2.60;;;17.50;81.70;;;;;;5073544;28;20104;-82
2023/05/30 07:11:59;;;;;;;9.43;1.90;;;17.50;82.30;;;;;;5072724;28;20110;-81
2023/05/30 07:14:24;;;;;;;4.97;2.00;;;17.60;82.00;;;;;;5073784;28;20028;-81
2023/05/30 07:16:50;;;;;;;9.65;1.88;;;17.70;82.50;;;;;;5089440;28;20024;-82
2023/05/30 07:19:16;;;;;;;7.03;2.00;;;17.70;82.70;;;;;;5073831;28;20022;-81
2023/05/30 07:21:41;;;;;;;5.25;1.90;;;17.80;82.20;;;;;;5073246;28;20107;-84
2023/05/30 07:24:07;;;;;;;8.30;1.85;;;17.90;82.20;;;;;;5089328;28;20028;-82
2023/05/30 07:26:34;;;;;;;8.93;1.85;;;17.90;82.70;;;;;;5073194;28;20097;-83
2023/05/30 07:29:00;;;;;;;8.02;2.30;;;17.90;82.40;;;;;;5072453;28;20029;-84
2023/05/30 07:31:25;;;;;;;9.18;1.90;;;18.00;81.20;;;;;;5061493;28;20366;-83
2023/05/30 07:33:51;;;;;;;9.63;2.30;;;18.00;81.70;;;;;;5053091;28;20458;-84
2023/05/30 07:36:18;;;;;;;4.32;2.03;;;18.00;81.40;;;;;;5053174;28;20036;-83
2023/05/30 07:38:43;;;;;;;7.45;2.13;;;18.00;81.00;;;;;;5066379;28;20111;-85
2023/05/30 07:41:09;;;;;;;4.82;1.60;;;18.10;81.70;;;;;;5071936;28;20096;-85
2023/05/30 07:43:35;;;;;;;5.95;1.80;;;18.10;81.60;;;;;;5063160;28;20033;-86
2023/05/30 07:46:00;;;;;;;4.90;1.65;;;18.10;82.30;;;;;;5076513;28;20024;-85
2023/05/30 07:48:26;;;;;;;9.93;1.88;;;18.00;82.40;;;;;;5059190;28;20486;-85
2023/05/30 07:50:51;;;;;;;5.88;2.20;;;18.10;82.10;;;;;;5059328;28;20040;-83
2023/05/30 07:53:17;;;;;;;10.05;2.15;;;18.10;82.00;;;;;;5075039;28;20031;-82
2023/05/30 07:55:42;;;;;;;7.95;2.17;;;18.20;82.00;;;;;;5075584;28;20029;-83
2023/05/30 07:58:08;;;;;;;5.18;1.85;;;18.30;81.80;;;;;;5075652;28;20036;-82
2023/05/30 08:00:33;;;;;;;7.90;2.10;;;18.40;81.40;;;;;;5074044;28;20058;-87
2023/05/30 08:02:59;;;;;;;7.20;2.40;;;18.40;81.90;;;;;;5074084;28;20161;-84
2023/05/30 08:05:25;;;;;;;4.72;1.75;;;18.50;81.40;;;;;;5075547;28;20040;-84
2023/05/30 08:07:50;;;;;;;6.35;1.88;;;18.50;80.50;;;;;;5076174;28;20067;-82
2023/05/30 08:10:16;;;;;;;5.85;1.90;;;18.50;80.30;;;;;;5076681;28;20036;-84
2023/05/30 08:12:42;;;;;;;4.95;1.80;;;18.50;80.40;;;;;;5075134;28;20461;-84
2023/05/30 08:15:09;;;;;;;5.57;1.98;;;18.60;79.80;;;;;;5075870;28;20108;-83
2023/05/30 08:17:35;;;;;;;6.93;1.70;;;18.60;80.10;;;;;;5076023;28;20119;-90
2023/05/30 08:20:03;;;;;;;3.80;1.70;;;18.60;79.40;;;;;;5076539;28;20161;-85
2023/05/30 08:22:31;;;;;;;4.45;1.73;;;18.70;79.40;;;;;;5075474;28;20041;-83
2023/05/30 08:24:59;;;;;;;5.25;1.58;;;18.80;79.60;;;;;;5075082;28;20028;-81
2023/05/30 08:27:25;;;;;;;6.03;1.90;;;18.80;80.30;;;;;;5075387;28;20052;-83
2023/05/30 08:29:50;;;;;;;6.15;1.85;;;18.90;79.90;;;;;;5074903;28;20036;-82
2023/05/30 08:32:19;;;;;;;7.15;2.25;;;19.00;80.30;;;;;;5075117;28;20033;-86
2023/05/30 08:34:48;;;;;;;6.15;1.77;;;19.00;79.30;;;;;;5060666;28;20082;-79
2023/05/30 08:37:14;;;;;;;5.70;1.67;;;19.10;78.60;;;;;;5054927;28;20029;-82
2023/05/30 08:39:39;;;;;;;6.72;2.03;;;19.10;78.30;;;;;;5055854;28;20500;-86
2023/05/30 08:42:06;;;;;;;6.03;1.95;;;19.10;78.10;;;;;;5058073;28;20083;-85
2023/05/30 08:44:32;;;;;;;6.43;2.05;;;19.10;78.50;;;;;;5055660;28;20029;-84
2023/05/30 08:46:59;;;;;;;8.55;2.00;;;19.10;79.20;;;;;;5054952;28;20057;-83
2023/05/30 08:49:25;;;;;;;6.20;1.90;;;19.10;78.90;;;;;;5055508;28;20028;-84
2023/05/30 08:51:53;;;;;;;5.97;1.85;;;19.10;79.10;;;;;;5054657;28;20470;-86
2023/05/30 08:54:28;;;;;;;7.65;2.20;;;19.10;78.80;;;;;;5055133;28;20025;-86
2023/05/30 08:57:06;;;;;;;7.13;1.90;;;19.20;79.10;;;;;;5053995;28;20029;-86
2023/05/30 08:59:32;;;;;;;8.40;1.92;;;19.30;78.70;;;;;;5055520;28;20029;-86
2023/05/30 09:01:58;;;;;;;5.18;2.10;;;19.30;77.90;;;;;;5067627;28;20064;-82
2023/05/30 09:04:25;;;;;;;9.95;2.00;;;19.30;77.90;;;;;;5059541;28;20032;-82
2023/05/30 09:06:52;;;;;;;5.68;2.03;;;19.40;78.10;;;;;;5068103;28;20101;-83
2023/05/30 09:09:21;;;;;;;7.88;2.13;;;19.40;78.00;;;;;;5066350;28;20025;-80
2023/05/30 09:11:46;;;;;;;5.68;1.83;;;19.40;77.70;;;;;;5065656;28;20056;-81
2023/05/30 09:14:12;;;;;;;8.82;2.15;;;19.50;77.50;;;;;;5065637;28;20103;-80
2023/05/30 09:16:38;;;;;;;4.65;1.42;;;19.60;77.90;;;;;;5062612;28;20124;-87
2023/05/30 09:19:04;;;;;;;6.50;1.67;;;19.60;77.10;;;;;;5070205;28;20027;-81
2023/05/30 09:21:31;;;;;;;5.30;1.50;;;19.70;77.60;;;;;;5063801;28;20028;-84
2023/05/30 09:24:03;;;;;;;6.60;2.38;;;19.80;74.40;;;;;;5064499;28;20028;-84
2023/05/30 09:26:28;;;;;;;;;;;19.80;74.20;;;;;;5060162;28;20041;-87
2023/05/30 09:28:54;;;;;;;6.45;1.90;;;19.90;74.10;;;;;;5068317;28;20257;-86
2023/05/30 09:31:22;;;;;;;7.38;1.60;;;19.90;73.30;;;;;;5061969;28;20057;-86
2023/05/30 09:33:51;;;;;;;4.80;2.05;;;19.90;72.80;;;;;;5067571;28;20102;-88
2023/05/30 09:36:18;;;;;;;6.75;1.95;;;20.00;73.10;;;;;;5071098;28;20079;-89
2023/05/30 09:38:53;;;;;;;8.13;2.08;;;20.00;74.90;;;;;;5070585;28;20029;-86
2023/05/30 09:41:19;;;;;;;8.88;1.90;;;20.10;74.90;;;;;;5070855;28;20028;-87
2023/05/30 09:43:45;;;;;;;10.90;2.53;;;20.10;76.10;;;;;;5070326;28;20083;-86
2023/05/30 09:46:10;;;;;;;4.47;1.67;;;20.20;76.50;;;;;;5071544;28;20401;-86
2023/05/30 09:48:40;;;;;;;5.82;1.77;;;20.20;74.40;;;;;;5055109;28;20516;-87
2023/05/30 09:51:05;;;;;;;4.47;2.42;;;20.30;74.00;;;;;;5070820;28;20466;-87
2023/05/30 09:53:33;;;;;;;6.28;2.00;;;20.30;73.90;;;;;;5055138;28;20029;-87
2023/05/30 09:56:01;;;;;;;6.57;1.77;;;20.30;72.10;;;;;;5070235;28;20020;-87
2023/05/30 09:58:27;;;;;;;7.43;1.88;;;20.40;73.30;;;;;;5054669;28;20485;-87
2023/05/30 10:00:54;;;;;;;4.45;1.90;;;20.50;72.30;;;;;;5070233;28;20028;-87
2023/05/30 10:03:21;;;;;;;3.22;1.80;;;20.50;70.30;;;;;;5055400;28;20053;-87
2023/05/30 10:05:47;;;;;;;6.40;1.70;;;20.50;71.00;;;;;;5070236;28;20087;-86
2023/05/30 10:08:13;;;;;;;5.30;1.60;;;20.60;72.30;;;;;;5069465;28;20461;-87
2023/05/30 10:10:41;;;;;;;5.55;1.85;;;20.50;71.80;;;;;;5055093;28;20064;-87
2023/05/30 10:13:07;;;;;;;5.22;1.60;;;20.60;71.30;;;;;;5054681;28;20029;-87
2023/05/30 10:15:33;;;;;;;9.45;1.80;;;20.60;69.40;;;;;;5071135;28;20377;-87
2023/05/30 10:18:08;;;;;;;4.45;1.90;;;20.60;69.70;;;;;;5069867;28;20025;-87
2023/05/30 10:20:37;;;;;;;7.15;1.92;;;20.70;69.60;;;;;;5070666;28;20025;-89
2023/05/30 10:23:07;;;;;;;4.80;1.63;;;20.80;69.20;;;;;;5070117;28;20033;-89
2023/05/30 10:25:35;;;;;;;3.78;1.50;;;20.80;68.90;;;;;;5054849;28;20040;-90
2023/05/30 10:28:03;;;;;;;9.43;1.77;;;20.80;68.80;;;;;;5069819;28;20140;-89
2023/05/30 10:30:31;;;;;;;4.45;1.95;;;20.90;71.50;;;;;;5070180;28;20057;-89
2023/05/30 10:32:56;;;;;;;7.15;1.98;;;21.00;72.90;;;;;;5052919;28;20029;-89
2023/05/30 10:35:22;;;;;;;5.40;1.98;;;21.10;68.70;;;;;;5070192;28;20033;-89
2023/05/30 10:37:49;;;;;;;5.72;2.00;;;21.10;68.60;;;;;;5069596;28;20025;-89
2023/05/30 10:40:18;;;;;;;3.72;1.70;;;21.10;69.90;;;;;;5054354;28;20029;-89
2023/05/30 10:42:48;;;;;;;8.32;2.15;;;21.10;69.10;;;;;;5069805;28;20033;-88
2023/05/30 10:45:17;;;;;;;8.30;2.05;;;21.20;71.20;;;;;;5070312;28;20116;-89
2023/05/30 10:48:02;;;;;;;4.70;1.73;;;21.20;71.50;;;;;;5054200;28;20033;-89
2023/05/30 10:50:41;;;;;;;4.68;1.58;;;21.30;68.60;;;;;;5070291;28;20057;-89
2023/05/30 10:53:20;;;;;;;5.40;1.73;;;21.30;67.90;;;;;;5053754;28;20371;-89
2023/05/30 10:55:48;;;;;;;9.02;2.00;;;21.30;67.70;;;;;;5054031;28;20095;-88
2023/05/30 10:58:37;;;;;;;5.22;1.90;;;21.30;69.00;;;;;;5069731;28;20056;-89
2023/05/30 11:01:29;;;;;;;3.72;1.67;;;21.40;69.90;;;;;;5069731;28;20037;-89
2023/05/30 11:04:15;;;;;;;5.18;2.08;;;21.50;66.90;;;;;;5053494;28;20146;-89
2023/05/30 11:06:45;;;;;;;7.18;2.00;;;21.60;69.50;;;;;;5054317;28;20029;-88
2023/05/30 11:09:16;;;;;;;4.97;2.13;;;21.70;69.60;;;;;;5053849;28;20070;-89
2023/05/30 11:12:01;;;;;;;2.55;1.55;;;21.70;68.70;;;;;;5069543;28;20037;-89
2023/05/30 11:14:36;;;;;;;5.20;2.67;;;21.80;69.40;;;;;;5053977;28;20021;-88
2023/05/30 11:17:04;;;;;;;6.15;1.90;;;21.90;68.90;;;;;;5053651;28;20025;-90
2023/05/30 11:19:42;;;;;;;4.65;2.00;;;22.00;69.60;;;;;;5055718;28;20096;-88
2023/05/30 11:22:15;;;;;;;4.72;2.05;;;22.00;67.60;;;;;;5056359;28;20037;-89
2023/05/30 11:24:42;;;;;;;5.55;2.10;;;22.10;68.30;;;;;;5058009;28;20025;-89
2023/05/30 11:27:09;;;;;;;3.88;1.70;;;22.10;66.40;;;;;;5073033;28;20025;-89
2023/05/30 11:29:53;;;;;;;4.00;2.13;;;22.10;65.40;;;;;;5073468;28;20025;-88
2023/05/30 11:32:22;;;;;;;5.72;2.03;;;22.20;67.40;;;;;;5058098;28;20115;-89
2023/05/30 11:35:03;;;;;;;3.25;1.70;;;22.20;67.80;;;;;;5072661;28;20458;-86
2023/05/30 11:37:31;;;;;;;8.35;2.47;;;22.30;67.00;;;;;;5073729;28;20025;-87
2023/05/30 11:39:57;;;;;;;4.10;1.67;;;22.40;68.80;;;;;;5072750;28;20028;-87
2023/05/30 11:42:24;;;;;;;3.00;1.90;;;22.50;65.80;;;;;;5073177;28;20474;-87
2023/05/30 11:44:50;;;;;;;4.30;1.88;;;22.50;65.10;;;;;;5072701;28;20091;-89
2023/05/30 11:47:18;;;;;;;5.75;2.10;;;22.70;64.20;;;;;;5072981;28;20424;-90
2023/05/30 11:49:45;;;;;;;5.53;2.10;;;22.70;64.10;;;;;;5073127;28;20029;-88
2023/05/30 11:52:12;;;;;;;4.28;1.88;;;22.70;63.70;;;;;;5056972;28;20032;-87
2023/05/30 11:54:39;;;;;;;4.68;2.10;;;22.70;65.00;;;;;;5057504;28;20025;-88
2023/05/30 11:57:06;;;;;;;5.55;1.50;;;22.70;66.20;;;;;;5072642;28;20029;-87
2023/05/30 11:59:33;;;;;;;6.97;2.03;;;22.80;66.30;;;;;;5072778;28;20025;-87
2023/05/30 12:01:59;;;;;;;4.45;2.05;;;22.80;66.60;;;;;;5072211;28;20053;-87
2023/05/30 12:04:32;;;;;;;3.78;1.48;;;22.80;65.70;;;;;;5072878;28;20033;-87
2023/05/30 12:07:02;;;;;;;5.32;2.00;;;22.90;67.30;;;;;;5072447;28;20029;-87
2023/05/30 12:09:38;;;;;;;3.63;1.90;;;23.00;65.10;;;;;;5072651;28;20025;-87
2023/05/30 12:12:05;;;;;;;4.78;2.00;;;23.00;62.40;;;;;;5056950;28;20033;-86
2023/05/30 12:14:37;;;;;;;5.70;2.13;;;22.90;63.50;;;;;;5072378;28;20029;-87
2023/05/30 12:17:08;;;;;;;2.55;1.75;;;23.00;62.40;;;;;;5072217;28;20029;-87
2023/05/30 12:19:33;;;;;;;3.95;1.98;;;23.10;64.30;;;;;;5056940;28;20025;-87
2023/05/30 12:22:03;;;;;;;5.00;1.67;;;23.20;64.60;;;;;;5072169;28;20411;-87
2023/05/30 12:24:33;;;;;;;5.40;1.85;;;23.30;64.70;;;;;;5057161;28;20021;-87
2023/05/30 12:26:59;;;;;;;5.70;1.88;;;23.30;63.70;;;;;;5056009;28;20066;-87
2023/05/30 12:29:25;;;;;;;3.85;2.00;;;23.20;64.60;;;;;;5057043;28;20025;-88
2023/05/30 12:31:52;;;;;;;4.88;1.65;;;23.20;66.60;;;;;;5070696;28;20059;-87
2023/05/30 12:34:19;;;;;;;5.30;2.13;;;23.40;65.20;;;;;;5072121;28;20025;-87
2023/05/30 12:36:46;;;;;;;6.07;1.70;;;23.40;62.10;;;;;;5071864;28;20033;-87
2023/05/30 12:39:12;;;;;;;4.07;1.65;;;23.60;63.10;;;;;;5055973;28;20040;-87
2023/05/30 12:41:40;;;;;;;5.03;1.85;;;23.70;64.60;;;;;;5056482;28;20029;-87
2023/05/30 12:44:06;;;;;;;6.57;1.90;;;23.80;62.90;;;;;;5071519;28;20052;-87
2023/05/30 12:46:42;;;;;;;3.45;1.90;;;23.90;62.80;;;;;;5071962;28;20029;-88
2023/05/30 12:49:08;;;;;;;5.97;2.35;;;24.10;65.40;;;;;;5071579;28;20086;-88
2023/05/30 12:51:35;;;;;;;3.70;1.80;;;24.30;61.60;;;;;;5072048;28;20458;-87